sensor_id;sensor_type;location;lat;lon;timestamp;P1;durP1;ratioP1;P2;durP2;ratioP2
29700;SDS011;57917;51.380;-0.176;2022-12-04T00:01:20;26.55;;;7.60;;
29700;SDS011;57917;51.380;-0.176;2022-12-04T00:07:12;20.08;;;7.47;;
29700;SDS011;57917;51.380;-0.176;2022-12-04T00:12:59;19.05;;;7.35;;
29700;SDS011;57917;51.380;-0.176;2022-12-04T00:18:46;22.38;;;7.30;;
29700;SDS011;57917;51.380;-0.176;2022-12-04T00:24:33;18.27;;;7.80;;
29700;SDS011;57917;51.380;-0.176;2022-12-04T00:30:20;18.65;;;7.13;;
29700;SDS011;57917;51.380;-0.176;2022-12-04T00:36:09;18.33;;;7.25;;
29700;SDS011;57917;51.380;-0.176;2022-12-04T00:42:06;18.38;;;7.20;;
29700;SDS011;57917;51.380;-0.176;2022-12-04T00:47:56;22.60;;;7.65;;
29700;SDS011;57917;51.380;-0.176;2022-12-04T00:53:42;19.80;;;8.05;;
29700;SDS011;57917;51.380;-0.176;2022-12-04T00:59:30;18.20;;;7.35;;
29700;SDS011;57917;51.380;-0.176;2022-12-04T01:05:17;21.30;;;7.97;;
29700;SDS011;57917;51.380;-0.176;2022-12-04T01:11:06;21.92;;;8.65;;
29700;SDS011;57917;51.380;-0.176;2022-12-04T01:16:53;19.95;;;8.02;;
29700;SDS011;57917;51.380;-0.176;2022-12-04T01:22:40;20.35;;;7.78;;
29700;SDS011;57917;51.380;-0.176;2022-12-04T01:28:27;21.65;;;8.40;;
29700;SDS011;57917;51.380;-0.176;2022-12-04T01:34:14;17.02;;;6.53;;
29700;SDS011;57917;51.380;-0.176;2022-12-04T01:40:01;22.63;;;8.88;;
29700;SDS011;57917;51.380;-0.176;2022-12-04T01:45:51;19.25;;;8.43;;
29700;SDS011;57917;51.380;-0.176;2022-12-04T01:51:40;28.73;;;8.80;;
29700;SDS011;57917;51.380;-0.176;2022-12-04T01:57:30;16.97;;;6.87;;
29700;SDS011;57917;51.380;-0.176;2022-12-04T02:03:18;21.55;;;7.53;;
29700;SDS011;57917;51.380;-0.176;2022-12-04T02:09:06;27.40;;;8.65;;
29700;SDS011;57917;51.380;-0.176;2022-12-04T02:26:58;26.27;;;8.13;;
29700;SDS011;57917;51.380;-0.176;2022-12-04T02:33:13;22.15;;;8.02;;
29700;SDS011;57917;51.380;-0.176;2022-12-04T02:44:59;22.60;;;8.27;;
29700;SDS011;57917;51.380;-0.176;2022-12-04T02:50:49;19.20;;;7.38;;
29700;SDS011;57917;51.380;-0.176;2022-12-04T02:56:40;15.95;;;7.10;;
29700;SDS011;57917;51.380;-0.176;2022-12-04T03:02:46;25.15;;;8.18;;
29700;SDS011;57917;51.380;-0.176;2022-12-04T03:08:43;23.52;;;8.60;;
29700;SDS011;57917;51.380;-0.176;2022-12-04T03:14:35;19.65;;;7.82;;
29700;SDS011;57917;51.380;-0.176;2022-12-04T03:20:27;25.10;;;10.00;;
29700;SDS011;57917;51.380;-0.176;2022-12-04T03:26:21;30.00;;;9.63;;
29700;SDS011;57917;51.380;-0.176;2022-12-04T03:32:18;26.52;;;9.93;;
29700;SDS011;57917;51.380;-0.176;2022-12-04T03:44:10;20.92;;;9.25;;
29700;SDS011;57917;51.380;-0.176;2022-12-04T03:50:07;23.10;;;8.52;;
29700;SDS011;57917;51.380;-0.176;2022-12-04T03:55:57;26.95;;;9.30;;
29700;SDS011;57917;51.380;-0.176;2022-12-04T04:01:47;31.65;;;10.13;;
29700;SDS011;57917;51.380;-0.176;2022-12-04T04:07:43;23.95;;;9.73;;
29700;SDS011;57917;51.380;-0.176;2022-12-04T04:13:35;35.55;;;10.73;;
29700;SDS011;57917;51.380;-0.176;2022-12-04T04:19:47;31.05;;;11.07;;
29700;SDS011;57917;51.380;-0.176;2022-12-04T04:31:51;36.30;;;11.73;;
29700;SDS011;57917;51.380;-0.176;2022-12-04T04:43:58;30.08;;;11.55;;
29700;SDS011;57917;51.380;-0.176;2022-12-04T04:50:00;34.85;;;11.15;;
29700;SDS011;57917;51.380;-0.176;2022-12-04T04:55:52;34.15;;;11.93;;
29700;SDS011;57917;51.380;-0.176;2022-12-04T05:01:40;32.63;;;11.38;;
29700;SDS011;57917;51.380;-0.176;2022-12-04T05:07:30;27.13;;;11.13;;
29700;SDS011;57917;51.380;-0.176;2022-12-04T05:13:17;30.77;;;11.05;;
29700;SDS011;57917;51.380;-0.176;2022-12-04T05:19:05;34.30;;;12.27;;
29700;SDS011;57917;51.380;-0.176;2022-12-04T05:25:10;36.35;;;11.98;;
29700;SDS011;57917;51.380;-0.176;2022-12-04T05:30:58;22.38;;;8.98;;
29700;SDS011;57917;51.380;-0.176;2022-12-04T05:36:46;29.45;;;12.00;;
29700;SDS011;57917;51.380;-0.176;2022-12-04T05:42:36;28.08;;;10.70;;
29700;SDS011;57917;51.380;-0.176;2022-12-04T05:48:22;29.80;;;11.02;;
29700;SDS011;57917;51.380;-0.176;2022-12-04T05:54:09;34.47;;;11.63;;
29700;SDS011;57917;51.380;-0.176;2022-12-04T05:59:56;34.15;;;11.55;;
29700;SDS011;57917;51.380;-0.176;2022-12-04T06:05:43;35.47;;;11.77;;
29700;SDS011;57917;51.380;-0.176;2022-12-04T06:11:32;39.88;;;11.85;;
29700;SDS011;57917;51.380;-0.176;2022-12-04T06:17:20;35.10;;;12.38;;
29700;SDS011;57917;51.380;-0.176;2022-12-04T06:23:07;43.72;;;11.60;;
29700;SDS011;57917;51.380;-0.176;2022-12-04T06:28:54;26.75;;;11.95;;
29700;SDS011;57917;51.380;-0.176;2022-12-04T06:34:42;28.80;;;10.57;;
29700;SDS011;57917;51.380;-0.176;2022-12-04T06:40:29;36.05;;;11.93;;
29700;SDS011;57917;51.380;-0.176;2022-12-04T06:46:18;35.67;;;12.73;;
29700;SDS011;57917;51.380;-0.176;2022-12-04T06:52:08;38.83;;;13.63;;
29700;SDS011;57917;51.380;-0.176;2022-12-04T06:57:55;39.25;;;13.85;;
29700;SDS011;57917;51.380;-0.176;2022-12-04T07:03:42;34.20;;;12.85;;
29700;SDS011;57917;51.380;-0.176;2022-12-04T07:09:36;37.38;;;13.13;;
29700;SDS011;57917;51.380;-0.176;2022-12-04T07:15:23;32.45;;;13.57;;
29700;SDS011;57917;51.380;-0.176;2022-12-04T07:21:11;39.60;;;13.88;;
29700;SDS011;57917;51.380;-0.176;2022-12-04T07:27:01;34.45;;;12.73;;
29700;SDS011;57917;51.380;-0.176;2022-12-04T07:32:47;35.90;;;11.50;;
29700;SDS011;57917;51.380;-0.176;2022-12-04T07:38:34;44.25;;;13.52;;
29700;SDS011;57917;51.380;-0.176;2022-12-04T07:44:21;31.83;;;11.48;;
29700;SDS011;57917;51.380;-0.176;2022-12-04T07:50:08;34.08;;;12.18;;
29700;SDS011;57917;51.380;-0.176;2022-12-04T07:55:55;37.55;;;11.18;;
29700;SDS011;57917;51.380;-0.176;2022-12-04T08:01:42;32.45;;;11.02;;
29700;SDS011;57917;51.380;-0.176;2022-12-04T08:07:29;37.15;;;10.50;;
29700;SDS011;57917;51.380;-0.176;2022-12-04T08:13:16;22.05;;;9.75;;
29700;SDS011;57917;51.380;-0.176;2022-12-04T08:19:03;25.70;;;8.90;;
29700;SDS011;57917;51.380;-0.176;2022-12-04T08:24:50;29.15;;;11.48;;
29700;SDS011;57917;51.380;-0.176;2022-12-04T08:30:37;29.55;;;10.50;;
29700;SDS011;57917;51.380;-0.176;2022-12-04T08:36:25;22.42;;;9.18;;
29700;SDS011;57917;51.380;-0.176;2022-12-04T08:42:12;17.50;;;7.85;;
29700;SDS011;57917;51.380;-0.176;2022-12-04T08:47:59;23.75;;;9.57;;
29700;SDS011;57917;51.380;-0.176;2022-12-04T08:53:46;28.55;;;10.27;;
29700;SDS011;57917;51.380;-0.176;2022-12-04T08:59:32;26.55;;;9.70;;
29700;SDS011;57917;51.380;-0.176;2022-12-04T09:05:19;19.83;;;9.23;;
29700;SDS011;57917;51.380;-0.176;2022-12-04T09:11:14;31.33;;;7.85;;
29700;SDS011;57917;51.380;-0.176;2022-12-04T09:17:02;21.40;;;7.95;;
29700;SDS011;57917;51.380;-0.176;2022-12-04T09:22:49;22.58;;;8.48;;
29700;SDS011;57917;51.380;-0.176;2022-12-04T09:28:50;25.00;;;9.18;;
29700;SDS011;57917;51.380;-0.176;2022-12-04T09:34:37;20.20;;;8.52;;
29700;SDS011;57917;51.380;-0.176;2022-12-04T09:40:26;19.63;;;7.15;;
29700;SDS011;57917;51.380;-0.176;2022-12-04T09:46:28;16.98;;;7.00;;
29700;SDS011;57917;51.380;-0.176;2022-12-04T09:52:27;19.77;;;7.53;;
29700;SDS011;57917;51.380;-0.176;2022-12-04T10:04:46;23.58;;;8.38;;
29700;SDS011;57917;51.380;-0.176;2022-12-04T10:10:40;20.00;;;7.47;;
29700;SDS011;57917;51.380;-0.176;2022-12-04T10:28:49;17.10;;;8.18;;
29700;SDS011;57917;51.380;-0.176;2022-12-04T10:34:41;22.38;;;7.80;;
29700;SDS011;57917;51.380;-0.176;2022-12-04T10:40:36;24.25;;;9.52;;
29700;SDS011;57917;51.380;-0.176;2022-12-04T10:46:30;24.05;;;7.97;;
29700;SDS011;57917;51.380;-0.176;2022-12-04T10:52:19;23.60;;;8.98;;
29700;SDS011;57917;51.380;-0.176;2022-12-04T10:58:15;20.58;;;8.68;;
29700;SDS011;57917;51.380;-0.176;2022-12-04T11:04:08;23.20;;;9.73;;
29700;SDS011;57917;51.380;-0.176;2022-12-04T11:10:05;20.58;;;7.88;;
29700;SDS011;57917;51.380;-0.176;2022-12-04T11:16:04;29.92;;;10.23;;
29700;SDS011;57917;51.380;-0.176;2022-12-04T11:21:53;23.80;;;9.15;;
29700;SDS011;57917;51.380;-0.176;2022-12-04T11:27:43;24.63;;;10.38;;
29700;SDS011;57917;51.380;-0.176;2022-12-04T11:34:07;22.08;;;9.55;;
29700;SDS011;57917;51.380;-0.176;2022-12-04T11:39:50;24.75;;;9.30;;
29700;SDS011;57917;51.380;-0.176;2022-12-04T11:45:39;25.35;;;9.00;;
29700;SDS011;57917;51.380;-0.176;2022-12-04T12:03:33;19.25;;;7.80;;
29700;SDS011;57917;51.380;-0.176;2022-12-04T12:33:57;19.77;;;7.40;;
29700;SDS011;57917;51.380;-0.176;2022-12-04T12:39:59;15.20;;;6.30;;
29700;SDS011;57917;51.380;-0.176;2022-12-04T12:45:54;15.60;;;6.97;;
29700;SDS011;57917;51.380;-0.176;2022-12-04T12:58:40;18.75;;;8.27;;
29700;SDS011;57917;51.380;-0.176;2022-12-04T13:10:04;20.52;;;8.57;;
29700;SDS011;57917;51.380;-0.176;2022-12-04T13:16:01;24.63;;;11.10;;
29700;SDS011;57917;51.380;-0.176;2022-12-04T13:22:02;24.58;;;10.27;;
29700;SDS011;57917;51.380;-0.176;2022-12-04T13:28:22;20.48;;;9.30;;
29700;SDS011;57917;51.380;-0.176;2022-12-04T13:34:42;28.58;;;9.15;;
29700;SDS011;57917;51.380;-0.176;2022-12-04T13:40:42;21.58;;;8.82;;
29700;SDS011;57917;51.380;-0.176;2022-12-04T13:46:41;21.27;;;8.32;;
29700;SDS011;57917;51.380;-0.176;2022-12-04T13:52:40;25.58;;;8.85;;
29700;SDS011;57917;51.380;-0.176;2022-12-04T13:58:29;29.52;;;9.45;;
29700;SDS011;57917;51.380;-0.176;2022-12-04T14:04:22;20.95;;;8.40;;
29700;SDS011;57917;51.380;-0.176;2022-12-04T14:16:03;20.52;;;8.48;;
29700;SDS011;57917;51.380;-0.176;2022-12-04T14:21:53;23.92;;;7.75;;
29700;SDS011;57917;51.380;-0.176;2022-12-04T14:33:26;16.98;;;6.50;;
29700;SDS011;57917;51.380;-0.176;2022-12-04T14:39:36;23.38;;;8.32;;
29700;SDS011;57917;51.380;-0.176;2022-12-04T14:51:31;23.02;;;9.38;;
29700;SDS011;57917;51.380;-0.176;2022-12-04T15:09:03;16.02;;;8.02;;
29700;SDS011;57917;51.380;-0.176;2022-12-04T15:15:19;16.00;;;7.40;;
29700;SDS011;57917;51.380;-0.176;2022-12-04T15:21:10;22.20;;;8.82;;
29700;SDS011;57917;51.380;-0.176;2022-12-04T15:26:57;21.92;;;8.45;;
29700;SDS011;57917;51.380;-0.176;2022-12-04T15:32:45;27.45;;;9.57;;
29700;SDS011;57917;51.380;-0.176;2022-12-04T15:38:35;24.58;;;8.52;;
29700;SDS011;57917;51.380;-0.176;2022-12-04T15:44:30;21.05;;;7.53;;
29700;SDS011;57917;51.380;-0.176;2022-12-04T15:56:09;21.10;;;7.65;;
29700;SDS011;57917;51.380;-0.176;2022-12-04T16:02:20;20.80;;;7.57;;
29700;SDS011;57917;51.380;-0.176;2022-12-04T16:08:48;22.13;;;7.45;;
29700;SDS011;57917;51.380;-0.176;2022-12-04T16:14:28;10.63;;;5.63;;
29700;SDS011;57917;51.380;-0.176;2022-12-04T16:20:15;9.48;;;4.63;;
29700;SDS011;57917;51.380;-0.176;2022-12-04T16:26:02;16.48;;;7.30;;
29700;SDS011;57917;51.380;-0.176;2022-12-04T16:31:51;12.95;;;6.20;;
29700;SDS011;57917;51.380;-0.176;2022-12-04T16:37:46;12.77;;;6.05;;
29700;SDS011;57917;51.380;-0.176;2022-12-04T16:43:33;15.05;;;6.22;;
29700;SDS011;57917;51.380;-0.176;2022-12-04T16:49:19;11.48;;;5.70;;
29700;SDS011;57917;51.380;-0.176;2022-12-04T16:55:50;10.50;;;5.68;;
29700;SDS011;57917;51.380;-0.176;2022-12-04T17:01:22;11.43;;;6.23;;
29700;SDS011;57917;51.380;-0.176;2022-12-04T17:07:11;22.10;;;9.00;;
29700;SDS011;57917;51.380;-0.176;2022-12-04T17:13:01;15.18;;;7.05;;
29700;SDS011;57917;51.380;-0.176;2022-12-04T17:18:48;16.27;;;7.65;;
29700;SDS011;57917;51.380;-0.176;2022-12-04T17:24:35;14.95;;;6.72;;
29700;SDS011;57917;51.380;-0.176;2022-12-04T17:30:32;13.98;;;6.35;;
29700;SDS011;57917;51.380;-0.176;2022-12-04T17:36:23;11.88;;;5.88;;
29700;SDS011;57917;51.380;-0.176;2022-12-04T17:42:11;15.43;;;6.03;;
29700;SDS011;57917;51.380;-0.176;2022-12-04T17:47:58;10.63;;;5.80;;
29700;SDS011;57917;51.380;-0.176;2022-12-04T17:53:45;12.77;;;6.18;;
29700;SDS011;57917;51.380;-0.176;2022-12-04T17:59:32;18.33;;;7.18;;
29700;SDS011;57917;51.380;-0.176;2022-12-04T18:05:19;10.13;;;5.63;;
29700;SDS011;57917;51.380;-0.176;2022-12-04T18:11:06;11.55;;;6.05;;
29700;SDS011;57917;51.380;-0.176;2022-12-04T18:16:53;14.80;;;7.32;;
29700;SDS011;57917;51.380;-0.176;2022-12-04T18:22:45;18.60;;;7.68;;
29700;SDS011;57917;51.380;-0.176;2022-12-04T18:28:32;13.93;;;6.57;;
29700;SDS011;57917;51.380;-0.176;2022-12-04T18:34:19;13.07;;;7.32;;
29700;SDS011;57917;51.380;-0.176;2022-12-04T18:40:07;13.07;;;6.95;;
29700;SDS011;57917;51.380;-0.176;2022-12-04T18:45:58;20.05;;;8.63;;
29700;SDS011;57917;51.380;-0.176;2022-12-04T18:51:53;17.65;;;8.10;;
29700;SDS011;57917;51.380;-0.176;2022-12-04T18:57:40;16.50;;;7.63;;
29700;SDS011;57917;51.380;-0.176;2022-12-04T19:03:27;23.80;;;8.68;;
29700;SDS011;57917;51.380;-0.176;2022-12-04T19:09:16;28.60;;;8.73;;
29700;SDS011;57917;51.380;-0.176;2022-12-04T19:15:31;18.23;;;7.38;;
29700;SDS011;57917;51.380;-0.176;2022-12-04T19:21:18;17.38;;;7.68;;
29700;SDS011;57917;51.380;-0.176;2022-12-04T19:27:05;16.45;;;7.70;;
29700;SDS011;57917;51.380;-0.176;2022-12-04T19:32:58;23.55;;;7.85;;
29700;SDS011;57917;51.380;-0.176;2022-12-04T19:38:45;16.13;;;7.05;;
29700;SDS011;57917;51.380;-0.176;2022-12-04T19:44:32;15.18;;;6.72;;
29700;SDS011;57917;51.380;-0.176;2022-12-04T19:50:35;14.13;;;6.63;;
29700;SDS011;57917;51.380;-0.176;2022-12-04T19:56:23;17.50;;;6.95;;
29700;SDS011;57917;51.380;-0.176;2022-12-04T20:02:11;11.15;;;7.07;;
29700;SDS011;57917;51.380;-0.176;2022-12-04T20:07:58;14.93;;;6.18;;
29700;SDS011;57917;51.380;-0.176;2022-12-04T20:13:45;10.63;;;5.40;;
29700;SDS011;57917;51.380;-0.176;2022-12-04T20:19:34;17.55;;;6.65;;
29700;SDS011;57917;51.380;-0.176;2022-12-04T20:25:24;17.77;;;7.00;;
29700;SDS011;57917;51.380;-0.176;2022-12-04T20:31:15;83.82;;;12.00;;
29700;SDS011;57917;51.380;-0.176;2022-12-04T20:37:03;28.30;;;8.98;;
29700;SDS011;57917;51.380;-0.176;2022-12-04T20:42:50;11.50;;;6.00;;
29700;SDS011;57917;51.380;-0.176;2022-12-04T20:48:37;11.85;;;5.25;;
29700;SDS011;57917;51.380;-0.176;2022-12-04T20:54:23;12.77;;;6.20;;
29700;SDS011;57917;51.380;-0.176;2022-12-04T21:00:10;88.18;;;10.32;;
29700;SDS011;57917;51.380;-0.176;2022-12-04T21:06:01;8.32;;;5.03;;
29700;SDS011;57917;51.380;-0.176;2022-12-04T21:11:52;11.88;;;6.15;;
29700;SDS011;57917;51.380;-0.176;2022-12-04T21:17:43;10.93;;;4.72;;
29700;SDS011;57917;51.380;-0.176;2022-12-04T21:23:30;15.18;;;6.88;;
29700;SDS011;57917;51.380;-0.176;2022-12-04T21:29:17;19.38;;;7.13;;
29700;SDS011;57917;51.380;-0.176;2022-12-04T21:35:04;24.05;;;8.10;;
29700;SDS011;57917;51.380;-0.176;2022-12-04T21:40:52;18.90;;;8.35;;
29700;SDS011;57917;51.380;-0.176;2022-12-04T21:46:39;16.40;;;7.03;;
29700;SDS011;57917;51.380;-0.176;2022-12-04T21:52:26;18.10;;;7.53;;
29700;SDS011;57917;51.380;-0.176;2022-12-04T21:58:13;23.27;;;7.82;;
29700;SDS011;57917;51.380;-0.176;2022-12-04T22:04:01;18.48;;;7.78;;
29700;SDS011;57917;51.380;-0.176;2022-12-04T22:09:48;20.27;;;7.90;;
29700;SDS011;57917;51.380;-0.176;2022-12-04T22:15:38;24.58;;;9.07;;
29700;SDS011;57917;51.380;-0.176;2022-12-04T22:21:29;22.03;;;8.17;;
29700;SDS011;57917;51.380;-0.176;2022-12-04T22:27:16;20.92;;;8.85;;
29700;SDS011;57917;51.380;-0.176;2022-12-04T22:33:03;20.42;;;9.18;;
29700;SDS011;57917;51.380;-0.176;2022-12-04T22:38:53;21.77;;;8.63;;
29700;SDS011;57917;51.380;-0.176;2022-12-04T22:50:42;19.20;;;8.20;;
29700;SDS011;57917;51.380;-0.176;2022-12-04T22:56:38;24.08;;;9.40;;
29700;SDS011;57917;51.380;-0.176;2022-12-04T23:02:38;19.30;;;9.07;;
29700;SDS011;57917;51.380;-0.176;2022-12-04T23:08:29;21.17;;;8.20;;
29700;SDS011;57917;51.380;-0.176;2022-12-04T23:14:35;21.85;;;9.13;;
29700;SDS011;57917;51.380;-0.176;2022-12-04T23:27:49;20.67;;;8.93;;
29700;SDS011;57917;51.380;-0.176;2022-12-04T23:33:39;26.23;;;9.90;;
29700;SDS011;57917;51.380;-0.176;2022-12-04T23:39:27;21.42;;;8.85;;
29700;SDS011;57917;51.380;-0.176;2022-12-04T23:45:14;29.05;;;10.77;;
29700;SDS011;57917;51.380;-0.176;2022-12-04T23:51:01;23.85;;;9.07;;
29700;SDS011;57917;51.380;-0.176;2022-12-04T23:56:49;23.38;;;10.23;;
